Inicio METAR Ruta Wind Satelite

Informe Meteorológico

Fecha: 2024/06/18 19:29:13 Local
2024.06.19 00:29 UTC


Operación:
SKCO 190000Z AUTO 28007KT 9999 OVC049/// 26/24 Q1009 =